MSC Carolina — 3ECV5 — position and weather

sailwx.info

Track history (hours):
 
Tides and Currents Weather Stations Pressure Air Temp Water Temp Dewpoint Dewpoint Depression Visibility Wind Speed Wind Dir Waves Ship Positions

MSC Carolina

Last reported at 2014-Oct-15 12:16 UTC. Time now 2014-Oct-21 05:36 UTC.
Position N 51°02' W 010°24'.

Length 275 m; draft 13.6 m.

Type: Ship (hazmat cat B). MMSI: 371475000.

Date/timePositionNaut miles runAvg speedWind from/ knotsBaromVisibWave heightAir tempDewpointWater temp
2014-Oct-15 12:16N 51°02' W 010°24'1515.7
2014-Oct-15 11:18N 51°00' W 009°60'1317.9
2014-Oct-15 10:33N 50°53' W 009°42'1716.4
2014-Oct-15 09:30N 50°44' W 009°18'34418.1
2014-Oct-14 14:30N 49°39' W 000°30'1718.0
2014-Oct-14 13:33N 49°32' W 000°06'1110.2
2014-Oct-14 12:31N 49°28' E 000°09'0 0.0
2014-Oct-14 11:31N 49°28' E 000°09'0 0.0
2014-Oct-14 10:31N 49°28' E 000°09'0 0.0
2014-Oct-14 09:31N 49°28' E 000°09'0 0.0
2014-Oct-14 08:31N 49°28' E 000°09'0 0.0
2014-Oct-14 07:31N 49°28' E 000°09'0 0.0
2014-Oct-14 06:31N 49°28' E 000°09'0 0.0
2014-Oct-14 05:31N 49°28' E 000°09'0 0.0
2014-Oct-14 04:31N 49°28' E 000°09'0 0.0
2014-Oct-14 03:31N 49°28' E 000°09'0 0.0
2014-Oct-14 02:31N 49°28' E 000°09'0 0.0
2014-Oct-14 01:31N 49°28' E 000°09'0 0.0
2014-Oct-14 00:31N 49°28' E 000°09'0 0.0
2014-Oct-13 23:31N 49°28' E 000°09'0 0.0
2014-Oct-13 22:31N 49°28' E 000°09'0 0.0
2014-Oct-13 21:31N 49°28' E 000°09'0 0.0
2014-Oct-13 20:31N 49°28' E 000°09'0 0.0
2014-Oct-13 19:31N 49°28' E 000°09'0 0.0
2014-Oct-13 18:31N 49°28' E 000°09'0 0.0
2014-Oct-13 17:31N 49°28' E 000°09'0 0.0
2014-Oct-13 16:31N 49°28' E 000°09'0 0.0
2014-Oct-13 15:31N 49°28' E 000°09'0 0.0
2014-Oct-13 14:34N 49°28' E 000°09'0 0.0
2014-Oct-13 13:30N 49°28' E 000°09'0 0.0
2014-Oct-13 12:33N 49°28' E 000°09'0 0.0
2014-Oct-13 11:30N 49°28' E 000°09'0 0.0
2014-Oct-13 10:33N 49°28' E 000°09'1 1.2
2014-Oct-13 09:33N 49°28' E 000°07'1211.6
2014-Oct-13 08:33N 49°35' W 000°07'1312.7
2014-Oct-13 07:31N 49°48' W 000°10'4214.0
2014-Oct-13 04:33N 50°29' E 000°00'1615.7
2014-Oct-13 03:34N 50°33' E 000°24'1312.7
2014-Oct-13 02:34N 50°39' E 000°41'2512.3
2014-Oct-13 00:33N 50°53' E 001°14'1413.9
2014-Oct-12 23:33N 51°03' E 001°29'1717.4
2014-Oct-12 22:34N 51°15' E 001°48'1413.9
2014-Oct-12 21:33N 51°23' E 002°07'1514.9
2014-Oct-12 20:33N 51°23' E 002°31'1514.4
2014-Oct-12 19:29N 51°25' E 002°55'1920.3
2014-Oct-12 18:33N 51°25' E 003°25'1212.0
2014-Oct-12 17:33N 51°23' E 003°44'1111.5
2014-Oct-12 16:34N 51°26' E 004°02'9 9.0
2014-Oct-12 15:34N 51°21' E 004°14'2 1.9
2014-Oct-12 14:33N 51°21' E 004°17'2 2.1
2014-Oct-12 13:28N 51°20' E 004°21'0 0.0
2014-Oct-12 12:31N 51°20' E 004°21'0 0.0
2014-Oct-12 11:34N 51°20' E 004°21'0 0.0
2014-Oct-12 10:33N 51°20' E 004°21'0 0.0
2014-Oct-12 09:30N 51°20' E 004°20'0 0.0
2014-Oct-12 08:33N 51°20' E 004°21'0 0.0
2014-Oct-12 07:33N 51°20' E 004°21'0 0.0
2014-Oct-12 06:33N 51°20' E 004°20'0 0.0
2014-Oct-12 05:18N 51°20' E 004°21'0 0.0
2014-Oct-12 04:30N 51°20' E 004°21'0 0.0
2014-Oct-12 03:33N 51°20' E 004°21'0 0.0
2014-Oct-12 02:33N 51°20' E 004°20'0 0.0
2014-Oct-12 01:33N 51°20' E 004°21'0 0.0
2014-Oct-12 00:33N 51°20' E 004°20'0 0.0
2014-Oct-11 23:33N 51°20' E 004°20'0 0.0
2014-Oct-11 22:27N 51°20' E 004°20'0 0.0
2014-Oct-11 21:30N 51°20' E 004°21'0 0.0
2014-Oct-11 20:33N 51°20' E 004°20'0 0.0
2014-Oct-11 19:33N 51°20' E 004°20'0 0.0
2014-Oct-11 18:33N 51°20' E 004°21'0 0.0
2014-Oct-11 17:33N 51°20' E 004°20'0 0.0
2014-Oct-11 16:33N 51°20' E 004°20'0 0.0
2014-Oct-11 15:33N 51°20' E 004°20'0 0.0
2014-Oct-11 14:33N 51°20' E 004°20'0 0.0
2014-Oct-11 13:33N 51°20' E 004°20'0 0.0
2014-Oct-11 12:33N 51°20' E 004°20'0 0.4
2014-Oct-11 11:30N 51°20' E 004°20'0 0.0
2014-Oct-11 10:33N 51°20' E 004°20'0 0.0
2014-Oct-11 09:30N 51°20' E 004°20'0 0.0
2014-Oct-11 08:33N 51°20' E 004°20'0 0.0
2014-Oct-11 07:30N 51°20' E 004°20'0 0.0
2014-Oct-11 06:30N 51°20' E 004°20'0 0.0
2014-Oct-11 05:30N 51°20' E 004°20'0 0.0
2014-Oct-11 04:32N 51°20' E 004°20'0 0.0
2014-Oct-11 03:32N 51°20' E 004°20'0 0.0
2014-Oct-11 02:29N 51°20' E 004°20'0 0.0
2014-Oct-11 01:32N 51°20' E 004°20'0 0.0
2014-Oct-11 00:32N 51°20' E 004°20'0 0.0
2014-Oct-10 23:32N 51°20' E 004°20'0 0.0
2014-Oct-10 22:32N 51°20' E 004°20'0 0.0
2014-Oct-10 21:23N 51°20' E 004°20'0 0.0
2014-Oct-10 20:32N 51°20' E 004°20'0 0.0
2014-Oct-10 19:32N 51°20' E 004°20'0 0.0
2014-Oct-10 18:32N 51°20' E 004°20'0 0.0
2014-Oct-10 17:32N 51°20' E 004°20'0 0.0
2014-Oct-10 16:32N 51°20' E 004°20'0 0.0
2014-Oct-10 15:32N 51°20' E 004°20'0 0.0
2014-Oct-10 14:32N 51°20' E 004°20'0 0.0
2014-Oct-10 13:33N 51°20' E 004°20'2 2.0
2014-Oct-10 12:33N 51°21' E 004°17'0 0.2
2014-Oct-10 11:33N 51°21' E 004°17'10 9.9
2014-Oct-10 10:34N 51°24' E 004°02'1111.0
2014-Oct-10 09:33N 51°22' E 003°45'1312.8
2014-Oct-10 08:33N 51°25' E 003°25'1817.6
2014-Oct-10 07:31N 51°22' E 002°56'1716.4
2014-Oct-10 06:30N 51°22' E 002°29'1314.1
2014-Oct-10 05:33N 51°20' E 002°08'1514.6
2014-Oct-10 04:33N 51°31' E 001°52'1414.0
2014-Oct-10 03:33N 51°44' E 001°45'1110.5
2014-Oct-10 02:33N 51°52' E 001°34'1110.4
2014-Oct-10 01:31N 51°57' E 001°19'0 0.0
2014-Oct-10 00:31N 51°57' E 001°19'0 0.0
2014-Oct-09 23:31N 51°57' E 001°19'0 0.0
2014-Oct-09 22:31N 51°57' E 001°19'0 0.0
2014-Oct-09 21:31N 51°57' E 001°19'0 0.0
2014-Oct-09 20:31N 51°57' E 001°19'0 0.0
2014-Oct-09 19:31N 51°57' E 001°19'0 0.0
2014-Oct-09 18:31N 51°57' E 001°19'0 0.0
2014-Oct-09 17:31N 51°57' E 001°19'0 0.0
2014-Oct-09 16:31N 51°57' E 001°19'0 0.0
2014-Oct-09 15:31N 51°57' E 001°19'0 0.0
2014-Oct-09 14:31N 51°57' E 001°19'0 0.0
2014-Oct-09 13:31N 51°57' E 001°19'0 0.0
2014-Oct-09 12:31N 51°57' E 001°19'0 0.0
2014-Oct-09 11:31N 51°57' E 001°19'0 0.0
2014-Oct-09 10:31N 51°57' E 001°19'0 0.0
2014-Oct-09 09:31N 51°57' E 001°19'0 0.0
2014-Oct-09 08:34N 51°57' E 001°19'0 0.0
2014-Oct-09 07:34N 51°57' E 001°19'0 0.0
2014-Oct-09 06:33N 51°57' E 001°19'0 0.0
2014-Oct-09 05:33N 51°57' E 001°19'0 0.0
2014-Oct-09 04:33N 51°57' E 001°19'0 0.0
2014-Oct-09 03:33N 51°57' E 001°19'0 0.0
2014-Oct-09 02:33N 51°57' E 001°19'0 0.0
2014-Oct-09 01:33N 51°57' E 001°19'0 0.0
2014-Oct-09 00:33N 51°57' E 001°19'0 0.0
2014-Oct-08 23:33N 51°57' E 001°19'0 0.0
2014-Oct-08 22:33N 51°57' E 001°19'0 0.0
2014-Oct-08 21:33N 51°57' E 001°19'0 0.0
2014-Oct-08 20:33N 51°57' E 001°19'0 0.0
2014-Oct-08 19:33N 51°57' E 001°19'0 0.0
2014-Oct-08 18:33N 51°57' E 001°19'0 0.0
2014-Oct-08 17:33N 51°57' E 001°19'0 0.0
2014-Oct-08 16:33N 51°57' E 001°19'2 1.8
2014-Oct-08 15:33N 51°56' E 001°21'1211.8
2014-Oct-08 14:34N 51°52' E 001°39'2 2.3
2014-Oct-08 13:34N 51°53' E 001°42'0 0.5
2014-Oct-08 12:33N 51°53' E 001°41'0 0.0
2014-Oct-08 11:33N 51°53' E 001°41'0 0.1
2014-Oct-08 10:33N 51°53' E 001°41'0 0.3
2014-Oct-08 09:33N 51°53' E 001°41'0 0.0
2014-Oct-08 08:33N 51°53' E 001°41'0 0.0
2014-Oct-08 07:33N 51°53' E 001°41'0 0.1
2014-Oct-08 06:34N 51°53' E 001°41'2 1.7
2014-Oct-08 05:33N 51°51' E 001°42'6 6.4
2014-Oct-08 04:33N 51°47' E 001°48'10 9.6
2014-Oct-08 03:33N 51°37' E 001°50'1110.6
2014-Oct-08 02:33N 51°28' E 001°59'9 9.0
2014-Oct-08 01:33N 51°19' E 001°57'1413.8
2014-Oct-08 00:34N 51°09' E 001°43'1514.7
2014-Oct-07 23:33N 50°56' E 001°30'3113.4
2014-Oct-07 21:15N 50°31' E 001°02'1013.8
2014-Oct-07 20:33N 50°27' E 000°48'1615.6
2014-Oct-07 19:33N 50°23' E 000°25'  
2014-Oct-05 13:19N 38°09' W 009°39'1418.6
2014-Oct-05 12:33N 37°55' W 009°36'  
Track history (hours):
 
Tides and Currents Weather Stations Pressure Air Temp Water Temp Dewpoint Dewpoint Depression Visibility Wind Speed Wind Dir Waves Ship Positions

MSC Carolina

Last reported at 2014-Oct-15 12:16 UTC. Time now 2014-Oct-21 05:36 UTC.
Position N 51°02' W 010°24'.

Length 275 m; draft 13.6 m.

Type: Ship (hazmat cat B). MMSI: 371475000.

Date/timePositionNaut miles runAvg speedWind from/ knotsBaromVisibWave heightAir tempDewpointWater temp
2014-Oct-15 12:16N 51°02' W 010°24'1515.7
2014-Oct-15 11:18N 51°00' W 009°60'1317.9
2014-Oct-15 10:33N 50°53' W 009°42'1716.4
2014-Oct-15 09:30N 50°44' W 009°18'34418.1
2014-Oct-14 14:30N 49°39' W 000°30'1718.0
2014-Oct-14 13:33N 49°32' W 000°06'1110.2
2014-Oct-14 12:31N 49°28' E 000°09'0 0.0
2014-Oct-14 11:31N 49°28' E 000°09'0 0.0
2014-Oct-14 10:31N 49°28' E 000°09'0 0.0
2014-Oct-14 09:31N 49°28' E 000°09'0 0.0
2014-Oct-14 08:31N 49°28' E 000°09'0 0.0
2014-Oct-14 07:31N 49°28' E 000°09'0 0.0
2014-Oct-14 06:31N 49°28' E 000°09'0 0.0
2014-Oct-14 05:31N 49°28' E 000°09'0 0.0
2014-Oct-14 04:31N 49°28' E 000°09'0 0.0
2014-Oct-14 03:31N 49°28' E 000°09'0 0.0
2014-Oct-14 02:31N 49°28' E 000°09'0 0.0
2014-Oct-14 01:31N 49°28' E 000°09'0 0.0
2014-Oct-14 00:31N 49°28' E 000°09'0 0.0
2014-Oct-13 23:31N 49°28' E 000°09'0 0.0
2014-Oct-13 22:31N 49°28' E 000°09'0 0.0
2014-Oct-13 21:31N 49°28' E 000°09'0 0.0
2014-Oct-13 20:31N 49°28' E 000°09'0 0.0
2014-Oct-13 19:31N 49°28' E 000°09'0 0.0
2014-Oct-13 18:31N 49°28' E 000°09'0 0.0
2014-Oct-13 17:31N 49°28' E 000°09'0 0.0
2014-Oct-13 16:31N 49°28' E 000°09'0 0.0
2014-Oct-13 15:31N 49°28' E 000°09'0 0.0
2014-Oct-13 14:34N 49°28' E 000°09'0 0.0
2014-Oct-13 13:30N 49°28' E 000°09'0 0.0
2014-Oct-13 12:33N 49°28' E 000°09'0 0.0
2014-Oct-13 11:30N 49°28' E 000°09'0 0.0
2014-Oct-13 10:33N 49°28' E 000°09'1 1.2
2014-Oct-13 09:33N 49°28' E 000°07'1211.6
2014-Oct-13 08:33N 49°35' W 000°07'1312.7
2014-Oct-13 07:31N 49°48' W 000°10'4214.0
2014-Oct-13 04:33N 50°29' E 000°00'1615.7
2014-Oct-13 03:34N 50°33' E 000°24'1312.7
2014-Oct-13 02:34N 50°39' E 000°41'2512.3
2014-Oct-13 00:33N 50°53' E 001°14'1413.9
2014-Oct-12 23:33N 51°03' E 001°29'1717.4
2014-Oct-12 22:34N 51°15' E 001°48'1413.9
2014-Oct-12 21:33N 51°23' E 002°07'1514.9
2014-Oct-12 20:33N 51°23' E 002°31'1514.4
2014-Oct-12 19:29N 51°25' E 002°55'1920.3
2014-Oct-12 18:33N 51°25' E 003°25'1212.0
2014-Oct-12 17:33N 51°23' E 003°44'1111.5
2014-Oct-12 16:34N 51°26' E 004°02'9 9.0
2014-Oct-12 15:34N 51°21' E 004°14'2 1.9
2014-Oct-12 14:33N 51°21' E 004°17'2 2.1
2014-Oct-12 13:28N 51°20' E 004°21'0 0.0
2014-Oct-12 12:31N 51°20' E 004°21'0 0.0
2014-Oct-12 11:34N 51°20' E 004°21'0 0.0
2014-Oct-12 10:33N 51°20' E 004°21'0 0.0
2014-Oct-12 09:30N 51°20' E 004°20'0 0.0
2014-Oct-12 08:33N 51°20' E 004°21'0 0.0
2014-Oct-12 07:33N 51°20' E 004°21'0 0.0
2014-Oct-12 06:33N 51°20' E 004°20'0 0.0
2014-Oct-12 05:18N 51°20' E 004°21'0 0.0
2014-Oct-12 04:30N 51°20' E 004°21'0 0.0
2014-Oct-12 03:33N 51°20' E 004°21'0 0.0
2014-Oct-12 02:33N 51°20' E 004°20'0 0.0
2014-Oct-12 01:33N 51°20' E 004°21'0 0.0
2014-Oct-12 00:33N 51°20' E 004°20'0 0.0
2014-Oct-11 23:33N 51°20' E 004°20'0 0.0
2014-Oct-11 22:27N 51°20' E 004°20'0 0.0
2014-Oct-11 21:30N 51°20' E 004°21'0 0.0
2014-Oct-11 20:33N 51°20' E 004°20'0 0.0
2014-Oct-11 19:33N 51°20' E 004°20'0 0.0
2014-Oct-11 18:33N 51°20' E 004°21'0 0.0
2014-Oct-11 17:33N 51°20' E 004°20'0 0.0
2014-Oct-11 16:33N 51°20' E 004°20'0 0.0
2014-Oct-11 15:33N 51°20' E 004°20'0 0.0
2014-Oct-11 14:33N 51°20' E 004°20'0 0.0
2014-Oct-11 13:33N 51°20' E 004°20'0 0.0
2014-Oct-11 12:33N 51°20' E 004°20'0 0.4
2014-Oct-11 11:30N 51°20' E 004°20'0 0.0
2014-Oct-11 10:33N 51°20' E 004°20'0 0.0
2014-Oct-11 09:30N 51°20' E 004°20'0 0.0
2014-Oct-11 08:33N 51°20' E 004°20'0 0.0
2014-Oct-11 07:30N 51°20' E 004°20'0 0.0
2014-Oct-11 06:30N 51°20' E 004°20'0 0.0
2014-Oct-11 05:30N 51°20' E 004°20'0 0.0
2014-Oct-11 04:32N 51°20' E 004°20'0 0.0
2014-Oct-11 03:32N 51°20' E 004°20'0 0.0
2014-Oct-11 02:29N 51°20' E 004°20'0 0.0
2014-Oct-11 01:32N 51°20' E 004°20'0 0.0
2014-Oct-11 00:32N 51°20' E 004°20'0 0.0
2014-Oct-10 23:32N 51°20' E 004°20'0 0.0
2014-Oct-10 22:32N 51°20' E 004°20'0 0.0
2014-Oct-10 21:23N 51°20' E 004°20'0 0.0
2014-Oct-10 20:32N 51°20' E 004°20'0 0.0
2014-Oct-10 19:32N 51°20' E 004°20'0 0.0
2014-Oct-10 18:32N 51°20' E 004°20'0 0.0
2014-Oct-10 17:32N 51°20' E 004°20'0 0.0
2014-Oct-10 16:32N 51°20' E 004°20'0 0.0
2014-Oct-10 15:32N 51°20' E 004°20'0 0.0
2014-Oct-10 14:32N 51°20' E 004°20'0 0.0
2014-Oct-10 13:33N 51°20' E 004°20'2 2.0
2014-Oct-10 12:33N 51°21' E 004°17'0 0.2
2014-Oct-10 11:33N 51°21' E 004°17'10 9.9
2014-Oct-10 10:34N 51°24' E 004°02'1111.0
2014-Oct-10 09:33N 51°22' E 003°45'1312.8
2014-Oct-10 08:33N 51°25' E 003°25'1817.6
2014-Oct-10 07:31N 51°22' E 002°56'1716.4
2014-Oct-10 06:30N 51°22' E 002°29'1314.1
2014-Oct-10 05:33N 51°20' E 002°08'1514.6
2014-Oct-10 04:33N 51°31' E 001°52'1414.0
2014-Oct-10 03:33N 51°44' E 001°45'1110.5
2014-Oct-10 02:33N 51°52' E 001°34'1110.4
2014-Oct-10 01:31N 51°57' E 001°19'0 0.0
2014-Oct-10 00:31N 51°57' E 001°19'0 0.0
2014-Oct-09 23:31N 51°57' E 001°19'0 0.0
2014-Oct-09 22:31N 51°57' E 001°19'0 0.0
2014-Oct-09 21:31N 51°57' E 001°19'0 0.0
2014-Oct-09 20:31N 51°57' E 001°19'0 0.0
2014-Oct-09 19:31N 51°57' E 001°19'0 0.0
2014-Oct-09 18:31N 51°57' E 001°19'0 0.0
2014-Oct-09 17:31N 51°57' E 001°19'0 0.0
2014-Oct-09 16:31N 51°57' E 001°19'0 0.0
2014-Oct-09 15:31N 51°57' E 001°19'0 0.0
2014-Oct-09 14:31N 51°57' E 001°19'0 0.0
2014-Oct-09 13:31N 51°57' E 001°19'0 0.0
2014-Oct-09 12:31N 51°57' E 001°19'0 0.0
2014-Oct-09 11:31N 51°57' E 001°19'0 0.0
2014-Oct-09 10:31N 51°57' E 001°19'0 0.0
2014-Oct-09 09:31N 51°57' E 001°19'0 0.0
2014-Oct-09 08:34N 51°57' E 001°19'0 0.0
2014-Oct-09 07:34N 51°57' E 001°19'0 0.0
2014-Oct-09 06:33N 51°57' E 001°19'0 0.0
2014-Oct-09 05:33N 51°57' E 001°19'0 0.0
2014-Oct-09 04:33N 51°57' E 001°19'0 0.0
2014-Oct-09 03:33N 51°57' E 001°19'0 0.0
2014-Oct-09 02:33N 51°57' E 001°19'0 0.0
2014-Oct-09 01:33N 51°57' E 001°19'0 0.0
2014-Oct-09 00:33N 51°57' E 001°19'0 0.0
2014-Oct-08 23:33N 51°57' E 001°19'0 0.0
2014-Oct-08 22:33N 51°57' E 001°19'0 0.0
2014-Oct-08 21:33N 51°57' E 001°19'0 0.0
2014-Oct-08 20:33N 51°57' E 001°19'0 0.0
2014-Oct-08 19:33N 51°57' E 001°19'0 0.0
2014-Oct-08 18:33N 51°57' E 001°19'0 0.0
2014-Oct-08 17:33N 51°57' E 001°19'0 0.0
2014-Oct-08 16:33N 51°57' E 001°19'2 1.8
2014-Oct-08 15:33N 51°56' E 001°21'1211.8
2014-Oct-08 14:34N 51°52' E 001°39'2 2.3
2014-Oct-08 13:34N 51°53' E 001°42'0 0.5
2014-Oct-08 12:33N 51°53' E 001°41'0 0.0
2014-Oct-08 11:33N 51°53' E 001°41'0 0.1
2014-Oct-08 10:33N 51°53' E 001°41'0 0.3
2014-Oct-08 09:33N 51°53' E 001°41'0 0.0
2014-Oct-08 08:33N 51°53' E 001°41'0 0.0
2014-Oct-08 07:33N 51°53' E 001°41'0 0.1
2014-Oct-08 06:34N 51°53' E 001°41'2 1.7
2014-Oct-08 05:33N 51°51' E 001°42'6 6.4
2014-Oct-08 04:33N 51°47' E 001°48'10 9.6
2014-Oct-08 03:33N 51°37' E 001°50'1110.6
2014-Oct-08 02:33N 51°28' E 001°59'9 9.0
2014-Oct-08 01:33N 51°19' E 001°57'1413.8
2014-Oct-08 00:34N 51°09' E 001°43'1514.7
2014-Oct-07 23:33N 50°56' E 001°30'3113.4
2014-Oct-07 21:15N 50°31' E 001°02'1013.8
2014-Oct-07 20:33N 50°27' E 000°48'1615.6
2014-Oct-07 19:33N 50°23' E 000°25'  
2014-Oct-05 13:19N 38°09' W 009°39'1418.6
2014-Oct-05 12:33N 37°55' W 009°36'  

Dump ship's entire track history